sensor_id;sensor_type;location;lat;lon;timestamp;pressure;altitude;pressure_sealevel;temperature;humidity
33506;BME280;19843;51.040;13.782;2023-05-02T00:01:25;100155.69;;;13.93;78.45
33506;BME280;19843;51.040;13.782;2023-05-02T00:03:53;100155.81;;;14.00;77.17
33506;BME280;19843;51.040;13.782;2023-05-02T00:06:21;100157.41;;;13.97;77.99
33506;BME280;19843;51.040;13.782;2023-05-02T00:08:48;100155.03;;;13.99;78.29
33506;BME280;19843;51.040;13.782;2023-05-02T00:11:16;100156.28;;;14.02;76.04
33506;BME280;19843;51.040;13.782;2023-05-02T00:13:44;100159.44;;;14.00;75.86
33506;BME280;19843;51.040;13.782;2023-05-02T00:16:12;100166.63;;;13.98;75.00
33506;BME280;19843;51.040;13.782;2023-05-02T00:18:39;100157.53;;;13.85;77.56
33506;BME280;19843;51.040;13.782;2023-05-02T00:21:07;100163.44;;;13.99;76.65
33506;BME280;19843;51.040;13.782;2023-05-02T00:23:34;100159.22;;;13.90;76.78
33506;BME280;19843;51.040;13.782;2023-05-02T00:26:02;100164.94;;;13.93;77.13
33506;BME280;19843;51.040;13.782;2023-05-02T00:28:29;100165.00;;;13.97;75.81
33506;BME280;19843;51.040;13.782;2023-05-02T00:30:59;100168.63;;;13.78;78.86
33506;BME280;19843;51.040;13.782;2023-05-02T00:33:27;100165.78;;;13.58;80.99
33506;BME280;19843;51.040;13.782;2023-05-02T00:35:54;100167.34;;;13.75;79.06
33506;BME280;19843;51.040;13.782;2023-05-02T00:38:22;100164.72;;;13.82;79.06
33506;BME280;19843;51.040;13.782;2023-05-02T00:40:49;100173.19;;;13.86;79.68
33506;BME280;19843;51.040;13.782;2023-05-02T00:43:18;100172.66;;;13.80;79.70
33506;BME280;19843;51.040;13.782;2023-05-02T00:45:46;100170.16;;;13.75;79.45
33506;BME280;19843;51.040;13.782;2023-05-02T00:48:15;100164.09;;;13.73;79.89
33506;BME280;19843;51.040;13.782;2023-05-02T00:50:45;100162.06;;;13.35;84.29
33506;BME280;19843;51.040;13.782;2023-05-02T00:53:13;100172.53;;;13.38;82.72
33506;BME280;19843;51.040;13.782;2023-05-02T00:55:41;100177.31;;;13.53;83.58
33506;BME280;19843;51.040;13.782;2023-05-02T00:58:10;100173.13;;;13.47;81.36
33506;BME280;19843;51.040;13.782;2023-05-02T01:00:45;100177.66;;;13.52;81.12
33506;BME280;19843;51.040;13.782;2023-05-02T01:03:26;100179.00;;;13.58;81.41
33506;BME280;19843;51.040;13.782;2023-05-02T01:06:05;100174.72;;;13.64;83.15
33506;BME280;19843;51.040;13.782;2023-05-02T01:08:45;100177.63;;;13.68;83.13
33506;BME280;19843;51.040;13.782;2023-05-02T01:11:16;100181.75;;;13.74;82.90
33506;BME280;19843;51.040;13.782;2023-05-02T01:13:47;100171.81;;;13.10;85.97
33506;BME280;19843;51.040;13.782;2023-05-02T01:16:17;100175.16;;;13.31;87.50
33506;BME280;19843;51.040;13.782;2023-05-02T01:18:49;100177.06;;;13.27;86.22
33506;BME280;19843;51.040;13.782;2023-05-02T01:21:16;100175.94;;;13.47;85.03
33506;BME280;19843;51.040;13.782;2023-05-02T01:23:49;100163.25;;;13.34;82.90
33506;BME280;19843;51.040;13.782;2023-05-02T01:26:28;100172.81;;;13.33;79.38
33506;BME280;19843;51.040;13.782;2023-05-02T01:29:02;100155.50;;;13.47;79.21
33506;BME280;19843;51.040;13.782;2023-05-02T01:31:34;100158.41;;;13.50;78.21
33506;BME280;19843;51.040;13.782;2023-05-02T01:34:05;100161.72;;;13.56;77.42
33506;BME280;19843;51.040;13.782;2023-05-02T01:36:37;100159.44;;;13.62;76.66
33506;BME280;19843;51.040;13.782;2023-05-02T01:39:08;100170.66;;;13.62;75.85
33506;BME280;19843;51.040;13.782;2023-05-02T01:41:37;100164.97;;;13.58;76.95
33506;BME280;19843;51.040;13.782;2023-05-02T01:44:09;100173.13;;;13.47;75.25
33506;BME280;19843;51.040;13.782;2023-05-02T01:46:39;100176.19;;;13.58;76.44
33506;BME280;19843;51.040;13.782;2023-05-02T01:49:09;100169.94;;;13.65;77.18
33506;BME280;19843;51.040;13.782;2023-05-02T01:51:42;100169.59;;;13.50;79.76
33506;BME280;19843;51.040;13.782;2023-05-02T01:54:12;100170.13;;;13.56;78.37
33506;BME280;19843;51.040;13.782;2023-05-02T01:56:40;100168.13;;;13.56;78.66
33506;BME280;19843;51.040;13.782;2023-05-02T01:59:12;100163.56;;;13.48;80.29
33506;BME280;19843;51.040;13.782;2023-05-02T02:01:41;100164.00;;;13.50;79.40
33506;BME280;19843;51.040;13.782;2023-05-02T02:04:12;100165.81;;;13.43;80.48
33506;BME280;19843;51.040;13.782;2023-05-02T02:06:44;100170.09;;;13.37;82.24
33506;BME280;19843;51.040;13.782;2023-05-02T02:09:12;100166.84;;;13.03;81.72
33506;BME280;19843;51.040;13.782;2023-05-02T02:11:43;100178.25;;;13.26;80.79
33506;BME280;19843;51.040;13.782;2023-05-02T02:14:18;100175.25;;;13.19;80.44
33506;BME280;19843;51.040;13.782;2023-05-02T02:16:46;100178.31;;;13.14;80.99
33506;BME280;19843;51.040;13.782;2023-05-02T02:19:16;100168.66;;;13.27;80.62
33506;BME280;19843;51.040;13.782;2023-05-02T02:21:46;100173.09;;;13.28;80.78
33506;BME280;19843;51.040;13.782;2023-05-02T02:24:16;100177.50;;;13.29;81.20
33506;BME280;19843;51.040;13.782;2023-05-02T02:26:44;100179.16;;;13.30;80.85
33506;BME280;19843;51.040;13.782;2023-05-02T02:29:12;100187.00;;;13.08;81.55
33506;BME280;19843;51.040;13.782;2023-05-02T02:31:41;100182.50;;;13.20;79.69
33506;BME280;19843;51.040;13.782;2023-05-02T02:34:09;100186.66;;;13.26;80.63
33506;BME280;19843;51.040;13.782;2023-05-02T02:36:44;100183.22;;;13.32;79.92
33506;BME280;19843;51.040;13.782;2023-05-02T02:39:19;100191.44;;;13.10;81.08
33506;BME280;19843;51.040;13.782;2023-05-02T02:41:59;100189.81;;;13.24;81.05
33506;BME280;19843;51.040;13.782;2023-05-02T02:44:35;100201.84;;;12.93;83.66
33506;BME280;19843;51.040;13.782;2023-05-02T02:47:10;100205.00;;;12.76;85.66
33506;BME280;19843;51.040;13.782;2023-05-02T02:49:46;100203.56;;;12.82;83.88
33506;BME280;19843;51.040;13.782;2023-05-02T02:52:20;100214.28;;;12.64;86.70
33506;BME280;19843;51.040;13.782;2023-05-02T02:54:51;100211.88;;;12.94;85.06
33506;BME280;19843;51.040;13.782;2023-05-02T02:57:26;100220.63;;;13.08;84.44
33506;BME280;19843;51.040;13.782;2023-05-02T03:00:00;100218.69;;;12.49;88.52
33506;BME280;19843;51.040;13.782;2023-05-02T03:02:31;100236.47;;;12.41;87.97
33506;BME280;19843;51.040;13.782;2023-05-02T03:05:00;100236.59;;;12.61;85.21
33506;BME280;19843;51.040;13.782;2023-05-02T03:07:28;100235.63;;;12.85;83.62
33506;BME280;19843;51.040;13.782;2023-05-02T03:09:56;100241.72;;;12.87;84.47
33506;BME280;19843;51.040;13.782;2023-05-02T03:12:24;100239.06;;;12.94;84.17
33506;BME280;19843;51.040;13.782;2023-05-02T03:14:52;100240.59;;;12.75;83.23
33506;BME280;19843;51.040;13.782;2023-05-02T03:17:21;100238.34;;;12.81;80.76
33506;BME280;19843;51.040;13.782;2023-05-02T03:19:53;100243.44;;;13.07;80.62
33506;BME280;19843;51.040;13.782;2023-05-02T03:22:22;100244.50;;;13.02;79.24
33506;BME280;19843;51.040;13.782;2023-05-02T03:24:50;100249.84;;;12.92;78.97
33506;BME280;19843;51.040;13.782;2023-05-02T03:27:17;100257.81;;;13.05;76.57
33506;BME280;19843;51.040;13.782;2023-05-02T03:29:45;100252.72;;;12.95;75.51
33506;BME280;19843;51.040;13.782;2023-05-02T03:32:13;100264.19;;;12.90;76.16
33506;BME280;19843;51.040;13.782;2023-05-02T03:34:40;100268.28;;;12.93;75.27
33506;BME280;19843;51.040;13.782;2023-05-02T03:37:09;100273.94;;;12.80;75.73
33506;BME280;19843;51.040;13.782;2023-05-02T03:39:36;100278.41;;;12.97;74.34
33506;BME280;19843;51.040;13.782;2023-05-02T03:42:04;100274.50;;;12.86;75.40
33506;BME280;19843;51.040;13.782;2023-05-02T03:44:31;100270.50;;;12.71;75.95
33506;BME280;19843;51.040;13.782;2023-05-02T03:46:59;100277.66;;;12.85;74.85
33506;BME280;19843;51.040;13.782;2023-05-02T03:49:26;100275.50;;;12.78;74.63
33506;BME280;19843;51.040;13.782;2023-05-02T03:51:54;100278.19;;;12.74;75.47
33506;BME280;19843;51.040;13.782;2023-05-02T03:54:22;100275.81;;;12.76;75.65
33506;BME280;19843;51.040;13.782;2023-05-02T03:56:52;100281.91;;;12.78;75.54
33506;BME280;19843;51.040;13.782;2023-05-02T03:59:19;100289.66;;;12.69;75.50
33506;BME280;19843;51.040;13.782;2023-05-02T04:01:47;100287.00;;;12.61;75.86
33506;BME280;19843;51.040;13.782;2023-05-02T04:04:15;100297.50;;;12.64;75.15
33506;BME280;19843;51.040;13.782;2023-05-02T04:06:42;100297.69;;;12.43;77.04
33506;BME280;19843;51.040;13.782;2023-05-02T04:09:10;100303.84;;;12.48;76.45
33506;BME280;19843;51.040;13.782;2023-05-02T04:11:39;100296.69;;;12.63;76.78
33506;BME280;19843;51.040;13.782;2023-05-02T04:14:07;100304.56;;;12.45;77.05
33506;BME280;19843;51.040;13.782;2023-05-02T04:16:34;100306.75;;;12.52;77.42
33506;BME280;19843;51.040;13.782;2023-05-02T04:19:02;100313.63;;;12.26;77.75
33506;BME280;19843;51.040;13.782;2023-05-02T04:21:29;100315.13;;;12.64;76.41
33506;BME280;19843;51.040;13.782;2023-05-02T04:23:57;100322.88;;;12.71;76.50
33506;BME280;19843;51.040;13.782;2023-05-02T04:26:24;100328.09;;;12.56;76.73
33506;BME280;19843;51.040;13.782;2023-05-02T04:28:53;100337.66;;;12.55;75.29
33506;BME280;19843;51.040;13.782;2023-05-02T04:31:21;100340.63;;;12.75;75.47
33506;BME280;19843;51.040;13.782;2023-05-02T04:33:48;100337.16;;;12.66;75.14
33506;BME280;19843;51.040;13.782;2023-05-02T04:36:16;100352.38;;;12.80;73.68
33506;BME280;19843;51.040;13.782;2023-05-02T04:38:44;100356.56;;;12.87;74.68
33506;BME280;19843;51.040;13.782;2023-05-02T04:41:11;100357.22;;;12.68;74.19
33506;BME280;19843;51.040;13.782;2023-05-02T04:43:39;100361.91;;;12.64;73.57
33506;BME280;19843;51.040;13.782;2023-05-02T04:46:08;100365.28;;;12.69;73.69
33506;BME280;19843;51.040;13.782;2023-05-02T04:48:35;100372.59;;;13.02;72.85
33506;BME280;19843;51.040;13.782;2023-05-02T04:51:07;100374.59;;;13.01;73.64
33506;BME280;19843;51.040;13.782;2023-05-02T04:53:35;100378.09;;;12.98;72.37
33506;BME280;19843;51.040;13.782;2023-05-02T04:56:02;100380.53;;;12.72;73.40
33506;BME280;19843;51.040;13.782;2023-05-02T04:58:30;100382.59;;;13.15;70.93
33506;BME280;19843;51.040;13.782;2023-05-02T05:00:57;100387.13;;;12.92;72.14
33506;BME280;19843;51.040;13.782;2023-05-02T05:03:26;100387.72;;;12.85;71.61
33506;BME280;19843;51.040;13.782;2023-05-02T05:05:55;100388.25;;;13.19;70.30
33506;BME280;19843;51.040;13.782;2023-05-02T05:08:23;100400.91;;;12.85;70.79
33506;BME280;19843;51.040;13.782;2023-05-02T05:10:50;100401.34;;;13.15;70.32
33506;BME280;19843;51.040;13.782;2023-05-02T05:13:18;100402.13;;;12.99;71.78
33506;BME280;19843;51.040;13.782;2023-05-02T05:15:46;100407.88;;;13.19;70.20
33506;BME280;19843;51.040;13.782;2023-05-02T05:18:14;100415.34;;;13.27;70.14
33506;BME280;19843;51.040;13.782;2023-05-02T05:20:42;100413.16;;;13.20;69.94
33506;BME280;19843;51.040;13.782;2023-05-02T05:23:10;100417.19;;;13.07;69.07
33506;BME280;19843;51.040;13.782;2023-05-02T05:25:37;100418.91;;;13.12;70.96
33506;BME280;19843;51.040;13.782;2023-05-02T05:28:05;100420.91;;;13.39;69.56
33506;BME280;19843;51.040;13.782;2023-05-02T05:30:33;100427.00;;;13.29;68.92
33506;BME280;19843;51.040;13.782;2023-05-02T05:33:00;100428.78;;;13.49;68.69
33506;BME280;19843;51.040;13.782;2023-05-02T05:35:27;100432.84;;;13.36;67.54
33506;BME280;19843;51.040;13.782;2023-05-02T05:37:56;100431.50;;;13.62;67.74
33506;BME280;19843;51.040;13.782;2023-05-02T05:40:24;100432.44;;;13.81;67.24
33506;BME280;19843;51.040;13.782;2023-05-02T05:42:51;100431.97;;;13.64;66.80
33506;BME280;19843;51.040;13.782;2023-05-02T05:45:18;100436.56;;;13.56;66.05
33506;BME280;19843;51.040;13.782;2023-05-02T05:47:46;100446.22;;;13.15;67.41
33506;BME280;19843;51.040;13.782;2023-05-02T05:50:14;100448.97;;;13.71;66.10
33506;BME280;19843;51.040;13.782;2023-05-02T05:52:41;100455.88;;;14.21;65.46
33506;BME280;19843;51.040;13.782;2023-05-02T05:55:10;100454.50;;;13.67;65.33
33506;BME280;19843;51.040;13.782;2023-05-02T05:57:37;100460.91;;;13.24;68.31
33506;BME280;19843;51.040;13.782;2023-05-02T06:00:06;100462.66;;;13.28;66.90
33506;BME280;19843;51.040;13.782;2023-05-02T06:02:34;100463.03;;;13.87;65.78
33506;BME280;19843;51.040;13.782;2023-05-02T06:05:01;100477.88;;;13.87;65.86
33506;BME280;19843;51.040;13.782;2023-05-02T06:07:29;100479.50;;;13.72;66.10
33506;BME280;19843;51.040;13.782;2023-05-02T06:09:57;100484.75;;;13.74;66.19
33506;BME280;19843;51.040;13.782;2023-05-02T06:12:26;100488.25;;;13.71;65.29
33506;BME280;19843;51.040;13.782;2023-05-02T06:14:53;100495.56;;;13.60;65.54
33506;BME280;19843;51.040;13.782;2023-05-02T06:17:20;100490.81;;;13.92;64.72
33506;BME280;19843;51.040;13.782;2023-05-02T06:19:48;100496.78;;;14.22;63.21
33506;BME280;19843;51.040;13.782;2023-05-02T06:22:15;100508.19;;;14.13;62.16
33506;BME280;19843;51.040;13.782;2023-05-02T06:24:43;100504.22;;;13.98;62.79
33506;BME280;19843;51.040;13.782;2023-05-02T06:27:10;100512.09;;;14.40;60.35
33506;BME280;19843;51.040;13.782;2023-05-02T06:29:39;100517.16;;;14.66;61.28
33506;BME280;19843;51.040;13.782;2023-05-02T06:32:06;100521.91;;;15.36;58.84
33506;BME280;19843;51.040;13.782;2023-05-02T06:34:35;100532.19;;;14.74;61.09
33506;BME280;19843;51.040;13.782;2023-05-02T06:37:02;100534.72;;;14.79;59.72
33506;BME280;19843;51.040;13.782;2023-05-02T06:39:30;100529.50;;;14.30;60.95
33506;BME280;19843;51.040;13.782;2023-05-02T06:41:57;100537.81;;;14.26;62.40
33506;BME280;19843;51.040;13.782;2023-05-02T06:44:25;100554.47;;;14.19;61.98
33506;BME280;19843;51.040;13.782;2023-05-02T06:46:54;100557.63;;;14.81;60.80
33506;BME280;19843;51.040;13.782;2023-05-02T06:49:21;100558.22;;;14.39;59.92
33506;BME280;19843;51.040;13.782;2023-05-02T06:51:49;100560.88;;;15.18;59.52
33506;BME280;19843;51.040;13.782;2023-05-02T06:54:16;100555.31;;;14.67;60.48
33506;BME280;19843;51.040;13.782;2023-05-02T06:56:44;100558.56;;;14.38;59.60
33506;BME280;19843;51.040;13.782;2023-05-02T06:59:11;100567.78;;;14.85;61.08
33506;BME280;19843;51.040;13.782;2023-05-02T07:01:38;100574.41;;;14.14;59.81
33506;BME280;19843;51.040;13.782;2023-05-02T07:04:07;100570.81;;;14.77;60.92
33506;BME280;19843;51.040;13.782;2023-05-02T07:06:35;100575.00;;;14.67;59.10
33506;BME280;19843;51.040;13.782;2023-05-02T07:09:02;100571.00;;;14.68;60.42
33506;BME280;19843;51.040;13.782;2023-05-02T07:11:30;100580.69;;;14.55;59.23
33506;BME280;19843;51.040;13.782;2023-05-02T07:13:57;100579.63;;;15.10;59.36
33506;BME280;19843;51.040;13.782;2023-05-02T07:16:25;100584.31;;;14.40;59.14
33506;BME280;19843;51.040;13.782;2023-05-02T07:18:52;100585.56;;;15.25;58.73
33506;BME280;19843;51.040;13.782;2023-05-02T07:21:21;100592.63;;;15.19;58.61
33506;BME280;19843;51.040;13.782;2023-05-02T07:23:48;100594.72;;;14.71;60.01
33506;BME280;19843;51.040;13.782;2023-05-02T07:26:16;100602.91;;;15.11;59.16
33506;BME280;19843;51.040;13.782;2023-05-02T07:28:44;100605.41;;;14.97;59.08
33506;BME280;19843;51.040;13.782;2023-05-02T07:31:11;100610.31;;;15.54;58.43
33506;BME280;19843;51.040;13.782;2023-05-02T07:33:39;100609.69;;;15.45;57.84
33506;BME280;19843;51.040;13.782;2023-05-02T07:36:06;100607.13;;;14.85;58.64
33506;BME280;19843;51.040;13.782;2023-05-02T07:38:35;100616.94;;;15.46;57.52
33506;BME280;19843;51.040;13.782;2023-05-02T07:41:02;100634.06;;;14.71;58.93
33506;BME280;19843;51.040;13.782;2023-05-02T07:43:30;100625.41;;;14.95;59.46
33506;BME280;19843;51.040;13.782;2023-05-02T07:45:57;100641.56;;;14.98;61.80
33506;BME280;19843;51.040;13.782;2023-05-02T07:48:29;100638.41;;;14.08;62.62
33506;BME280;19843;51.040;13.782;2023-05-02T07:51:04;100636.78;;;14.07;62.61
33506;BME280;19843;51.040;13.782;2023-05-02T07:53:32;100653.09;;;14.18;62.91
33506;BME280;19843;51.040;13.782;2023-05-02T07:56:02;100657.06;;;14.45;61.39
33506;BME280;19843;51.040;13.782;2023-05-02T07:58:29;100649.19;;;14.06;64.89
33506;BME280;19843;51.040;13.782;2023-05-02T08:00:57;100658.44;;;14.67;62.84
33506;BME280;19843;51.040;13.782;2023-05-02T08:03:24;100662.84;;;14.36;62.75
33506;BME280;19843;51.040;13.782;2023-05-02T08:05:53;100666.69;;;14.16;63.82
33506;BME280;19843;51.040;13.782;2023-05-02T08:08:21;100674.88;;;14.37;63.82
33506;BME280;19843;51.040;13.782;2023-05-02T08:10:48;100679.56;;;14.76;62.51
33506;BME280;19843;51.040;13.782;2023-05-02T08:13:17;100680.59;;;14.40;63.88
33506;BME280;19843;51.040;13.782;2023-05-02T08:15:45;100688.97;;;14.52;63.92
33506;BME280;19843;51.040;13.782;2023-05-02T08:18:12;100685.53;;;15.22;62.16
33506;BME280;19843;51.040;13.782;2023-05-02T08:20:40;100688.28;;;15.03;63.21
33506;BME280;19843;51.040;13.782;2023-05-02T08:23:09;100691.81;;;15.51;62.43
33506;BME280;19843;51.040;13.782;2023-05-02T08:25:36;100689.53;;;16.53;59.61
33506;BME280;19843;51.040;13.782;2023-05-02T08:28:04;100688.88;;;16.41;58.62
33506;BME280;19843;51.040;13.782;2023-05-02T08:30:33;100691.72;;;16.63;56.76
33506;BME280;19843;51.040;13.782;2023-05-02T08:33:00;100707.97;;;15.89;57.45
33506;BME280;19843;51.040;13.782;2023-05-02T08:35:28;100706.94;;;15.27;58.85
33506;BME280;19843;51.040;13.782;2023-05-02T08:37:55;100705.59;;;16.30;58.29
33506;BME280;19843;51.040;13.782;2023-05-02T08:40:23;100711.19;;;16.92;57.67
33506;BME280;19843;51.040;13.782;2023-05-02T08:43:06;100713.28;;;16.13;56.44
33506;BME280;19843;51.040;13.782;2023-05-02T08:45:44;100713.28;;;16.72;55.89
33506;BME280;19843;51.040;13.782;2023-05-02T08:48:12;100712.44;;;16.94;56.06
33506;BME280;19843;51.040;13.782;2023-05-02T08:50:43;100713.72;;;16.54;54.89
33506;BME280;19843;51.040;13.782;2023-05-02T08:53:14;100714.81;;;16.50;56.23
33506;BME280;19843;51.040;13.782;2023-05-02T08:55:42;100719.88;;;16.41;55.99
33506;BME280;19843;51.040;13.782;2023-05-02T08:58:10;100711.13;;;17.11;55.57
33506;BME280;19843;51.040;13.782;2023-05-02T09:00:42;100727.78;;;16.74;55.68
33506;BME280;19843;51.040;13.782;2023-05-02T09:03:19;100729.72;;;15.57;58.75
33506;BME280;19843;51.040;13.782;2023-05-02T09:05:52;100733.38;;;15.73;59.72
33506;BME280;19843;51.040;13.782;2023-05-02T09:08:23;100729.47;;;16.78;56.99
33506;BME280;19843;51.040;13.782;2023-05-02T09:10:51;100730.19;;;17.44;55.52
33506;BME280;19843;51.040;13.782;2023-05-02T09:13:29;100730.78;;;17.57;54.36
33506;BME280;19843;51.040;13.782;2023-05-02T09:15:59;100735.16;;;18.41;52.28
33506;BME280;19843;51.040;13.782;2023-05-02T09:18:28;100737.72;;;17.63;49.77
33506;BME280;19843;51.040;13.782;2023-05-02T09:20:57;100733.13;;;16.59;52.49
33506;BME280;19843;51.040;13.782;2023-05-02T09:23:37;100746.28;;;17.70;51.16
33506;BME280;19843;51.040;13.782;2023-05-02T09:26:16;100752.13;;;16.62;53.79
33506;BME280;19843;51.040;13.782;2023-05-02T09:28:44;100752.38;;;16.96;52.97
33506;BME280;19843;51.040;13.782;2023-05-02T09:31:15;100759.69;;;16.78;52.97
33506;BME280;19843;51.040;13.782;2023-05-02T09:34:07;100761.75;;;17.04;53.09
33506;BME280;19843;51.040;13.782;2023-05-02T09:36:38;100760.53;;;16.01;53.79
33506;BME280;19843;51.040;13.782;2023-05-02T09:39:08;100753.03;;;17.12;52.41
33506;BME280;19843;51.040;13.782;2023-05-02T09:41:38;100755.34;;;17.79;51.42
33506;BME280;19843;51.040;13.782;2023-05-02T09:44:09;100761.75;;;17.27;50.64
33506;BME280;19843;51.040;13.782;2023-05-02T09:46:42;100752.22;;;16.89;54.47
33506;BME280;19843;51.040;13.782;2023-05-02T09:49:10;100768.91;;;16.17;54.87
33506;BME280;19843;51.040;13.782;2023-05-02T09:51:40;100778.00;;;16.68;55.94
33506;BME280;19843;51.040;13.782;2023-05-02T09:54:09;100762.31;;;16.48;55.02
33506;BME280;19843;51.040;13.782;2023-05-02T09:56:52;100769.31;;;17.23;54.81
33506;BME280;19843;51.040;13.782;2023-05-02T09:59:22;100771.53;;;17.82;52.53
33506;BME280;19843;51.040;13.782;2023-05-02T10:01:55;100784.59;;;16.95;54.95
33506;BME280;19843;51.040;13.782;2023-05-02T10:04:24;100778.34;;;18.38;51.86
33506;BME280;19843;51.040;13.782;2023-05-02T10:06:53;100778.94;;;17.94;51.81
33506;BME280;19843;51.040;13.782;2023-05-02T10:09:21;100775.41;;;16.79;54.61
33506;BME280;19843;51.040;13.782;2023-05-02T10:11:51;100783.38;;;16.34;55.00
33506;BME280;19843;51.040;13.782;2023-05-02T10:14:19;100781.00;;;17.21;53.68
33506;BME280;19843;51.040;13.782;2023-05-02T10:16:52;100781.19;;;16.67;53.93
33506;BME280;19843;51.040;13.782;2023-05-02T10:19:27;100792.47;;;16.86;56.08
33506;BME280;19843;51.040;13.782;2023-05-02T10:21:56;100789.88;;;16.77;54.76
33506;BME280;19843;51.040;13.782;2023-05-02T10:24:24;100783.59;;;16.26;56.58
33506;BME280;19843;51.040;13.782;2023-05-02T10:26:53;100799.75;;;16.09;59.10
33506;BME280;19843;51.040;13.782;2023-05-02T10:29:21;100797.47;;;15.99;59.25
33506;BME280;19843;51.040;13.782;2023-05-02T10:31:48;100804.44;;;17.02;56.73
33506;BME280;19843;51.040;13.782;2023-05-02T10:34:17;100801.75;;;16.86;55.15
33506;BME280;19843;51.040;13.782;2023-05-02T10:36:46;100794.66;;;16.96;56.02
33506;BME280;19843;51.040;13.782;2023-05-02T10:39:14;100789.53;;;18.01;53.88
33506;BME280;19843;51.040;13.782;2023-05-02T10:41:41;100804.63;;;16.12;56.13
33506;BME280;19843;51.040;13.782;2023-05-02T10:44:10;100796.38;;;17.24;56.08
33506;BME280;19843;51.040;13.782;2023-05-02T10:46:38;100801.66;;;18.31;53.96
33506;BME280;19843;51.040;13.782;2023-05-02T10:49:08;100795.97;;;18.95;51.45
33506;BME280;19843;51.040;13.782;2023-05-02T10:51:37;100803.28;;;18.02;52.75
33506;BME280;19843;51.040;13.782;2023-05-02T10:54:20;100798.47;;;18.36;50.60
33506;BME280;19843;51.040;13.782;2023-05-02T10:57:01;100802.88;;;18.04;55.79
33506;BME280;19843;51.040;13.782;2023-05-02T10:59:31;100808.75;;;17.42;55.62
33506;BME280;19843;51.040;13.782;2023-05-02T11:01:59;100797.19;;;18.30;53.93
33506;BME280;19843;51.040;13.782;2023-05-02T11:04:57;100803.66;;;18.31;53.80
33506;BME280;19843;51.040;13.782;2023-05-02T11:07:27;100801.13;;;17.69;53.40
33506;BME280;19843;51.040;13.782;2023-05-02T11:10:26;100798.97;;;17.59;55.03
33506;BME280;19843;51.040;13.782;2023-05-02T11:12:55;100801.72;;;17.78;53.35
33506;BME280;19843;51.040;13.782;2023-05-02T11:15:54;100804.66;;;18.76;52.53
33506;BME280;19843;51.040;13.782;2023-05-02T11:18:25;100805.41;;;17.59;55.31
33506;BME280;19843;51.040;13.782;2023-05-02T11:21:25;100806.88;;;17.27;54.88
33506;BME280;19843;51.040;13.782;2023-05-02T11:27:38;100802.91;;;18.67;51.60
33506;BME280;19843;51.040;13.782;2023-05-02T11:30:09;100812.28;;;17.85;54.66
33506;BME280;19843;51.040;13.782;2023-05-02T11:35:43;100814.97;;;17.51;53.42
33506;BME280;19843;51.040;13.782;2023-05-02T11:38:14;100812.25;;;17.81;53.75
33506;BME280;19843;51.040;13.782;2023-05-02T11:40:55;100817.16;;;16.93;55.18
33506;BME280;19843;51.040;13.782;2023-05-02T11:43:26;100811.16;;;17.40;54.09
33506;BME280;19843;51.040;13.782;2023-05-02T11:45:57;100809.22;;;18.54;52.76
33506;BME280;19843;51.040;13.782;2023-05-02T11:48:26;100806.59;;;18.38;52.92
33506;BME280;19843;51.040;13.782;2023-05-02T11:50:55;100819.28;;;18.21;52.91
33506;BME280;19843;51.040;13.782;2023-05-02T11:53:25;100815.97;;;17.62;53.64
33506;BME280;19843;51.040;13.782;2023-05-02T11:55:55;100822.53;;;17.70;55.75
33506;BME280;19843;51.040;13.782;2023-05-02T11:58:25;100815.75;;;17.52;54.03
33506;BME280;19843;51.040;13.782;2023-05-02T12:00:55;100820.72;;;17.58;53.77
33506;BME280;19843;51.040;13.782;2023-05-02T12:03:26;100811.81;;;18.06;53.91
33506;BME280;19843;51.040;13.782;2023-05-02T12:05:55;100825.25;;;18.16;55.18
33506;BME280;19843;51.040;13.782;2023-05-02T12:08:24;100824.44;;;17.85;54.99
33506;BME280;19843;51.040;13.782;2023-05-02T12:10:53;100817.84;;;18.68;54.04
33506;BME280;19843;51.040;13.782;2023-05-02T12:13:22;100818.66;;;18.35;54.54
33506;BME280;19843;51.040;13.782;2023-05-02T12:15:52;100821.56;;;18.12;54.15
33506;BME280;19843;51.040;13.782;2023-05-02T12:18:21;100813.56;;;18.78;54.22
33506;BME280;19843;51.040;13.782;2023-05-02T12:20:50;100823.84;;;18.63;53.98
33506;BME280;19843;51.040;13.782;2023-05-02T12:23:19;100813.38;;;19.41;52.19
33506;BME280;19843;51.040;13.782;2023-05-02T12:25:47;100824.53;;;18.53;53.28
33506;BME280;19843;51.040;13.782;2023-05-02T12:28:16;100831.28;;;17.15;55.54
33506;BME280;19843;51.040;13.782;2023-05-02T12:30:46;100827.63;;;16.92;58.16
33506;BME280;19843;51.040;13.782;2023-05-02T12:33:16;100829.28;;;17.39;55.93
33506;BME280;19843;51.040;13.782;2023-05-02T12:35:44;100830.22;;;17.24;55.37
33506;BME280;19843;51.040;13.782;2023-05-02T12:38:14;100825.81;;;17.49;55.77
33506;BME280;19843;51.040;13.782;2023-05-02T12:40:46;100822.34;;;17.33;55.49
33506;BME280;19843;51.040;13.782;2023-05-02T12:43:14;100818.09;;;17.46;55.23
33506;BME280;19843;51.040;13.782;2023-05-02T12:45:42;100822.88;;;18.48;53.56
33506;BME280;19843;51.040;13.782;2023-05-02T12:48:22;100824.78;;;18.40;53.82
33506;BME280;19843;51.040;13.782;2023-05-02T12:50:50;100820.03;;;17.65;54.33
33506;BME280;19843;51.040;13.782;2023-05-02T12:53:36;100825.38;;;17.01;54.98
33506;BME280;19843;51.040;13.782;2023-05-02T12:56:05;100818.25;;;17.30;54.48
33506;BME280;19843;51.040;13.782;2023-05-02T12:58:40;100820.66;;;16.86;55.23
33506;BME280;19843;51.040;13.782;2023-05-02T13:01:08;100832.28;;;17.99;53.83